sensor_id;sensor_type;location;lat;lon;timestamp;P1;durP1;ratioP1;P2;durP2;ratioP2
5867;SDS011;2960;49.142;7.768;2024-02-23T00:01:05;9.83;;;3.27;;
5867;SDS011;2960;49.142;7.768;2024-02-23T00:03:33;9.17;;;3.13;;
5867;SDS011;2960;49.142;7.768;2024-02-23T00:06:01;8.70;;;3.20;;
5867;SDS011;2960;49.142;7.768;2024-02-23T00:08:31;10.53;;;3.53;;
5867;SDS011;2960;49.142;7.768;2024-02-23T00:10:58;13.53;;;3.30;;
5867;SDS011;2960;49.142;7.768;2024-02-23T00:13:25;9.63;;;3.27;;
5867;SDS011;2960;49.142;7.768;2024-02-23T00:15:52;8.80;;;3.20;;
5867;SDS011;2960;49.142;7.768;2024-02-23T00:18:19;11.60;;;3.27;;
5867;SDS011;2960;49.142;7.768;2024-02-23T00:20:46;10.80;;;3.20;;
5867;SDS011;2960;49.142;7.768;2024-02-23T00:23:13;8.93;;;3.50;;
5867;SDS011;2960;49.142;7.768;2024-02-23T00:25:42;9.10;;;3.20;;
5867;SDS011;2960;49.142;7.768;2024-02-23T00:28:09;10.07;;;3.50;;
5867;SDS011;2960;49.142;7.768;2024-02-23T00:30:36;9.07;;;3.40;;
5867;SDS011;2960;49.142;7.768;2024-02-23T00:33:09;10.53;;;3.60;;
5867;SDS011;2960;49.142;7.768;2024-02-23T00:35:36;10.00;;;3.53;;
5867;SDS011;2960;49.142;7.768;2024-02-23T00:38:03;8.73;;;3.30;;
5867;SDS011;2960;49.142;7.768;2024-02-23T00:40:30;9.70;;;3.80;;
5867;SDS011;2960;49.142;7.768;2024-02-23T00:42:59;8.83;;;3.33;;
5867;SDS011;2960;49.142;7.768;2024-02-23T00:45:28;9.87;;;3.70;;
5867;SDS011;2960;49.142;7.768;2024-02-23T00:47:55;11.23;;;3.23;;
5867;SDS011;2960;49.142;7.768;2024-02-23T00:50:24;9.87;;;3.53;;
5867;SDS011;2960;49.142;7.768;2024-02-23T00:52:52;10.27;;;3.63;;
5867;SDS011;2960;49.142;7.768;2024-02-23T00:55:21;12.37;;;3.83;;
5867;SDS011;2960;49.142;7.768;2024-02-23T00:57:50;13.10;;;3.27;;
5867;SDS011;2960;49.142;7.768;2024-02-23T01:00:19;23.27;;;3.60;;
5867;SDS011;2960;49.142;7.768;2024-02-23T01:02:46;8.60;;;3.20;;
5867;SDS011;2960;49.142;7.768;2024-02-23T01:05:13;8.50;;;3.03;;
5867;SDS011;2960;49.142;7.768;2024-02-23T01:07:40;10.33;;;3.40;;
5867;SDS011;2960;49.142;7.768;2024-02-23T01:10:07;9.33;;;3.33;;
5867;SDS011;2960;49.142;7.768;2024-02-23T01:12:35;8.70;;;3.10;;
5867;SDS011;2960;49.142;7.768;2024-02-23T01:15:02;11.47;;;3.13;;
5867;SDS011;2960;49.142;7.768;2024-02-23T01:17:32;8.77;;;3.00;;
5867;SDS011;2960;49.142;7.768;2024-02-23T01:19:59;9.93;;;3.10;;
5867;SDS011;2960;49.142;7.768;2024-02-23T01:22:26;9.20;;;3.10;;
5867;SDS011;2960;49.142;7.768;2024-02-23T01:24:53;9.00;;;2.97;;
5867;SDS011;2960;49.142;7.768;2024-02-23T01:27:20;9.83;;;3.20;;
5867;SDS011;2960;49.142;7.768;2024-02-23T01:29:48;9.00;;;3.00;;
5867;SDS011;2960;49.142;7.768;2024-02-23T01:32:15;9.20;;;3.20;;
5867;SDS011;2960;49.142;7.768;2024-02-23T01:34:43;8.60;;;3.10;;
5867;SDS011;2960;49.142;7.768;2024-02-23T01:37:11;19.23;;;3.80;;
5867;SDS011;2960;49.142;7.768;2024-02-23T01:39:38;10.20;;;3.27;;
5867;SDS011;2960;49.142;7.768;2024-02-23T01:42:05;9.30;;;3.27;;
5867;SDS011;2960;49.142;7.768;2024-02-23T01:44:32;11.43;;;3.20;;
5867;SDS011;2960;49.142;7.768;2024-02-23T01:46:59;8.73;;;2.93;;
5867;SDS011;2960;49.142;7.768;2024-02-23T01:49:26;9.40;;;3.13;;
5867;SDS011;2960;49.142;7.768;2024-02-23T01:51:58;8.80;;;3.00;;
5867;SDS011;2960;49.142;7.768;2024-02-23T01:54:25;9.50;;;3.27;;
5867;SDS011;2960;49.142;7.768;2024-02-23T01:56:53;10.27;;;3.50;;
5867;SDS011;2960;49.142;7.768;2024-02-23T01:59:22;11.63;;;3.00;;
5867;SDS011;2960;49.142;7.768;2024-02-23T02:01:49;8.90;;;3.30;;
5867;SDS011;2960;49.142;7.768;2024-02-23T02:04:16;9.33;;;3.17;;
5867;SDS011;2960;49.142;7.768;2024-02-23T02:06:44;9.43;;;3.27;;
5867;SDS011;2960;49.142;7.768;2024-02-23T02:09:14;8.60;;;3.17;;
5867;SDS011;2960;49.142;7.768;2024-02-23T02:11:47;8.87;;;3.10;;
5867;SDS011;2960;49.142;7.768;2024-02-23T02:14:15;8.80;;;3.00;;
5867;SDS011;2960;49.142;7.768;2024-02-23T02:16:42;9.97;;;3.20;;
5867;SDS011;2960;49.142;7.768;2024-02-23T02:19:10;8.47;;;2.87;;
5867;SDS011;2960;49.142;7.768;2024-02-23T02:21:38;10.03;;;3.47;;
5867;SDS011;2960;49.142;7.768;2024-02-23T02:24:06;10.93;;;3.23;;
5867;SDS011;2960;49.142;7.768;2024-02-23T02:26:36;9.00;;;3.00;;
5867;SDS011;2960;49.142;7.768;2024-02-23T02:29:04;8.57;;;3.03;;
5867;SDS011;2960;49.142;7.768;2024-02-23T02:31:31;11.20;;;3.40;;
5867;SDS011;2960;49.142;7.768;2024-02-23T02:34:02;8.70;;;3.20;;
5867;SDS011;2960;49.142;7.768;2024-02-23T02:36:30;9.17;;;3.27;;
5867;SDS011;2960;49.142;7.768;2024-02-23T02:38:57;9.23;;;3.30;;
5867;SDS011;2960;49.142;7.768;2024-02-23T02:41:24;9.47;;;3.50;;
5867;SDS011;2960;49.142;7.768;2024-02-23T02:43:57;8.93;;;3.13;;
5867;SDS011;2960;49.142;7.768;2024-02-23T02:46:24;8.70;;;3.10;;
5867;SDS011;2960;49.142;7.768;2024-02-23T02:48:51;8.40;;;2.80;;
5867;SDS011;2960;49.142;7.768;2024-02-23T02:51:18;10.60;;;3.20;;
5867;SDS011;2960;49.142;7.768;2024-02-23T02:53:45;8.83;;;2.83;;
5867;SDS011;2960;49.142;7.768;2024-02-23T02:56:12;10.63;;;3.20;;
5867;SDS011;2960;49.142;7.768;2024-02-23T02:58:40;9.47;;;2.97;;
5867;SDS011;2960;49.142;7.768;2024-02-23T03:01:08;8.70;;;3.10;;
5867;SDS011;2960;49.142;7.768;2024-02-23T03:03:35;10.70;;;4.27;;
5867;SDS011;2960;49.142;7.768;2024-02-23T03:06:03;8.97;;;3.13;;
5867;SDS011;2960;49.142;7.768;2024-02-23T03:08:30;8.50;;;3.10;;
5867;SDS011;2960;49.142;7.768;2024-02-23T03:10:57;8.50;;;2.90;;
5867;SDS011;2960;49.142;7.768;2024-02-23T03:13:25;8.90;;;3.03;;
5867;SDS011;2960;49.142;7.768;2024-02-23T03:15:52;9.33;;;3.00;;
5867;SDS011;2960;49.142;7.768;2024-02-23T03:18:20;8.90;;;3.00;;
5867;SDS011;2960;49.142;7.768;2024-02-23T03:20:48;9.40;;;3.13;;
5867;SDS011;2960;49.142;7.768;2024-02-23T03:23:15;9.73;;;3.07;;
5867;SDS011;2960;49.142;7.768;2024-02-23T03:25:42;8.50;;;2.67;;
5867;SDS011;2960;49.142;7.768;2024-02-23T03:28:09;8.50;;;2.97;;
5867;SDS011;2960;49.142;7.768;2024-02-23T03:30:36;9.00;;;2.90;;
5867;SDS011;2960;49.142;7.768;2024-02-23T03:33:03;10.47;;;3.20;;
5867;SDS011;2960;49.142;7.768;2024-02-23T03:35:32;9.47;;;3.40;;
5867;SDS011;2960;49.142;7.768;2024-02-23T03:37:59;8.70;;;3.00;;
5867;SDS011;2960;49.142;7.768;2024-02-23T03:40:27;8.60;;;2.70;;
5867;SDS011;2960;49.142;7.768;2024-02-23T03:42:54;9.40;;;2.97;;
5867;SDS011;2960;49.142;7.768;2024-02-23T03:45:21;8.70;;;3.00;;
5867;SDS011;2960;49.142;7.768;2024-02-23T03:47:48;8.80;;;3.00;;
5867;SDS011;2960;49.142;7.768;2024-02-23T03:50:15;8.43;;;2.83;;
5867;SDS011;2960;49.142;7.768;2024-02-23T03:52:44;8.40;;;2.80;;
5867;SDS011;2960;49.142;7.768;2024-02-23T03:55:11;8.60;;;2.93;;
5867;SDS011;2960;49.142;7.768;2024-02-23T03:57:38;9.33;;;2.70;;
5867;SDS011;2960;49.142;7.768;2024-02-23T04:00:06;9.97;;;2.87;;
5867;SDS011;2960;49.142;7.768;2024-02-23T04:02:34;8.10;;;2.60;;
5867;SDS011;2960;49.142;7.768;2024-02-23T04:05:01;8.60;;;2.70;;
5867;SDS011;2960;49.142;7.768;2024-02-23T04:07:28;9.87;;;2.63;;
5867;SDS011;2960;49.142;7.768;2024-02-23T04:09:57;13.20;;;2.87;;
5867;SDS011;2960;49.142;7.768;2024-02-23T04:12:24;8.50;;;2.97;;
5867;SDS011;2960;49.142;7.768;2024-02-23T04:14:51;8.27;;;2.60;;
5867;SDS011;2960;49.142;7.768;2024-02-23T04:17:18;8.50;;;2.87;;
5867;SDS011;2960;49.142;7.768;2024-02-23T04:19:45;8.80;;;2.70;;
5867;SDS011;2960;49.142;7.768;2024-02-23T04:22:13;8.70;;;3.03;;
5867;SDS011;2960;49.142;7.768;2024-02-23T04:24:40;8.70;;;2.80;;
5867;SDS011;2960;49.142;7.768;2024-02-23T04:27:09;9.20;;;2.80;;
5867;SDS011;2960;49.142;7.768;2024-02-23T04:29:36;9.87;;;2.50;;
5867;SDS011;2960;49.142;7.768;2024-02-23T04:32:03;9.03;;;2.70;;
5867;SDS011;2960;49.142;7.768;2024-02-23T04:34:31;8.30;;;2.60;;
5867;SDS011;2960;49.142;7.768;2024-02-23T04:36:59;8.27;;;2.57;;
5867;SDS011;2960;49.142;7.768;2024-02-23T04:39:27;8.67;;;2.80;;
5867;SDS011;2960;49.142;7.768;2024-02-23T04:41:54;8.40;;;2.67;;
5867;SDS011;2960;49.142;7.768;2024-02-23T04:44:22;8.73;;;2.70;;
5867;SDS011;2960;49.142;7.768;2024-02-23T04:46:49;8.90;;;2.90;;
5867;SDS011;2960;49.142;7.768;2024-02-23T04:49:16;8.43;;;2.83;;
5867;SDS011;2960;49.142;7.768;2024-02-23T04:51:43;10.30;;;2.87;;
5867;SDS011;2960;49.142;7.768;2024-02-23T04:54:10;8.57;;;2.53;;
5867;SDS011;2960;49.142;7.768;2024-02-23T04:56:37;9.73;;;2.50;;
5867;SDS011;2960;49.142;7.768;2024-02-23T04:59:04;8.90;;;2.70;;
5867;SDS011;2960;49.142;7.768;2024-02-23T05:01:36;8.43;;;2.57;;
5867;SDS011;2960;49.142;7.768;2024-02-23T05:04:03;9.63;;;2.53;;
5867;SDS011;2960;49.142;7.768;2024-02-23T05:06:31;9.03;;;2.40;;
5867;SDS011;2960;49.142;7.768;2024-02-23T05:08:58;8.80;;;2.73;;
5867;SDS011;2960;49.142;7.768;2024-02-23T05:11:26;9.07;;;2.50;;
5867;SDS011;2960;49.142;7.768;2024-02-23T05:13:53;8.07;;;2.20;;
5867;SDS011;2960;49.142;7.768;2024-02-23T05:16:20;8.07;;;2.33;;
5867;SDS011;2960;49.142;7.768;2024-02-23T05:18:49;8.17;;;2.50;;
5867;SDS011;2960;49.142;7.768;2024-02-23T05:21:16;8.70;;;2.60;;
5867;SDS011;2960;49.142;7.768;2024-02-23T05:23:43;8.30;;;2.60;;
5867;SDS011;2960;49.142;7.768;2024-02-23T05:26:11;8.40;;;2.33;;
5867;SDS011;2960;49.142;7.768;2024-02-23T05:28:40;8.27;;;2.40;;
5867;SDS011;2960;49.142;7.768;2024-02-23T05:31:07;9.50;;;2.60;;
5867;SDS011;2960;49.142;7.768;2024-02-23T05:33:36;9.10;;;2.80;;
5867;SDS011;2960;49.142;7.768;2024-02-23T05:36:05;9.07;;;2.60;;
5867;SDS011;2960;49.142;7.768;2024-02-23T05:38:33;8.20;;;2.40;;
5867;SDS011;2960;49.142;7.768;2024-02-23T05:41:00;8.57;;;2.60;;
5867;SDS011;2960;49.142;7.768;2024-02-23T05:43:27;10.33;;;2.73;;
5867;SDS011;2960;49.142;7.768;2024-02-23T05:45:54;9.80;;;2.70;;
5867;SDS011;2960;49.142;7.768;2024-02-23T05:48:23;8.40;;;2.60;;
5867;SDS011;2960;49.142;7.768;2024-02-23T05:50:50;8.90;;;2.70;;
5867;SDS011;2960;49.142;7.768;2024-02-23T05:53:19;8.07;;;2.37;;
5867;SDS011;2960;49.142;7.768;2024-02-23T05:55:46;9.13;;;2.67;;
5867;SDS011;2960;49.142;7.768;2024-02-23T05:58:13;9.53;;;2.63;;
5867;SDS011;2960;49.142;7.768;2024-02-23T06:00:41;8.70;;;2.60;;
5867;SDS011;2960;49.142;7.768;2024-02-23T06:03:08;11.40;;;2.67;;
5867;SDS011;2960;49.142;7.768;2024-02-23T06:05:35;10.63;;;2.50;;
5867;SDS011;2960;49.142;7.768;2024-02-23T06:08:03;9.07;;;2.30;;
5867;SDS011;2960;49.142;7.768;2024-02-23T06:10:32;9.43;;;2.67;;
5867;SDS011;2960;49.142;7.768;2024-02-23T06:12:59;8.07;;;2.30;;
5867;SDS011;2960;49.142;7.768;2024-02-23T06:15:26;8.97;;;2.37;;
5867;SDS011;2960;49.142;7.768;2024-02-23T06:17:54;8.23;;;2.30;;
5867;SDS011;2960;49.142;7.768;2024-02-23T06:20:21;8.33;;;2.50;;
5867;SDS011;2960;49.142;7.768;2024-02-23T06:22:48;8.50;;;2.13;;
5867;SDS011;2960;49.142;7.768;2024-02-23T06:25:15;8.47;;;2.53;;
5867;SDS011;2960;49.142;7.768;2024-02-23T06:27:44;9.80;;;3.00;;
5867;SDS011;2960;49.142;7.768;2024-02-23T06:30:11;8.83;;;2.57;;
5867;SDS011;2960;49.142;7.768;2024-02-23T06:32:39;9.67;;;2.43;;
5867;SDS011;2960;49.142;7.768;2024-02-23T06:35:06;8.60;;;2.60;;
5867;SDS011;2960;49.142;7.768;2024-02-23T06:37:36;12.67;;;2.83;;
5867;SDS011;2960;49.142;7.768;2024-02-23T06:40:04;8.70;;;2.67;;
5867;SDS011;2960;49.142;7.768;2024-02-23T06:42:32;8.50;;;2.43;;
5867;SDS011;2960;49.142;7.768;2024-02-23T06:45:00;8.03;;;2.50;;
5867;SDS011;2960;49.142;7.768;2024-02-23T06:47:28;9.27;;;2.50;;
5867;SDS011;2960;49.142;7.768;2024-02-23T06:49:55;8.07;;;2.57;;
5867;SDS011;2960;49.142;7.768;2024-02-23T06:52:22;9.40;;;2.90;;
5867;SDS011;2960;49.142;7.768;2024-02-23T06:54:51;9.13;;;2.70;;
5867;SDS011;2960;49.142;7.768;2024-02-23T06:57:18;8.10;;;2.43;;
5867;SDS011;2960;49.142;7.768;2024-02-23T06:59:45;8.97;;;3.10;;
5867;SDS011;2960;49.142;7.768;2024-02-23T07:02:14;8.10;;;2.50;;
5867;SDS011;2960;49.142;7.768;2024-02-23T07:04:41;8.97;;;2.80;;
5867;SDS011;2960;49.142;7.768;2024-02-23T07:07:08;8.20;;;2.77;;
5867;SDS011;2960;49.142;7.768;2024-02-23T07:09:36;9.37;;;3.00;;
5867;SDS011;2960;49.142;7.768;2024-02-23T07:12:04;8.27;;;2.70;;
5867;SDS011;2960;49.142;7.768;2024-02-23T07:14:32;8.50;;;2.90;;
5867;SDS011;2960;49.142;7.768;2024-02-23T07:16:59;9.10;;;2.87;;
5867;SDS011;2960;49.142;7.768;2024-02-23T07:19:28;9.17;;;2.50;;
5867;SDS011;2960;49.142;7.768;2024-02-23T07:21:55;8.83;;;2.83;;
5867;SDS011;2960;49.142;7.768;2024-02-23T07:24:22;10.47;;;3.07;;
5867;SDS011;2960;49.142;7.768;2024-02-23T07:26:50;8.67;;;2.77;;
5867;SDS011;2960;49.142;7.768;2024-02-23T07:29:17;8.67;;;2.90;;
5867;SDS011;2960;49.142;7.768;2024-02-23T07:31:44;8.50;;;2.80;;
5867;SDS011;2960;49.142;7.768;2024-02-23T07:34:11;8.80;;;2.60;;
5867;SDS011;2960;49.142;7.768;2024-02-23T07:36:40;8.93;;;2.80;;
5867;SDS011;2960;49.142;7.768;2024-02-23T07:39:08;8.80;;;3.00;;
5867;SDS011;2960;49.142;7.768;2024-02-23T07:41:36;11.43;;;2.90;;
5867;SDS011;2960;49.142;7.768;2024-02-23T07:44:03;8.10;;;2.80;;
5867;SDS011;2960;49.142;7.768;2024-02-23T07:46:30;8.90;;;3.07;;
5867;SDS011;2960;49.142;7.768;2024-02-23T07:48:57;10.67;;;2.90;;
5867;SDS011;2960;49.142;7.768;2024-02-23T07:51:24;8.30;;;2.80;;
5867;SDS011;2960;49.142;7.768;2024-02-23T07:53:53;8.40;;;2.90;;
5867;SDS011;2960;49.142;7.768;2024-02-23T07:56:20;9.17;;;2.87;;
5867;SDS011;2960;49.142;7.768;2024-02-23T07:58:47;8.47;;;2.80;;
5867;SDS011;2960;49.142;7.768;2024-02-23T08:01:15;8.40;;;2.83;;
5867;SDS011;2960;49.142;7.768;2024-02-23T08:03:44;9.43;;;3.10;;
5867;SDS011;2960;49.142;7.768;2024-02-23T08:06:11;9.43;;;3.23;;
5867;SDS011;2960;49.142;7.768;2024-02-23T08:08:39;8.50;;;2.93;;
5867;SDS011;2960;49.142;7.768;2024-02-23T08:11:07;8.27;;;2.93;;
5867;SDS011;2960;49.142;7.768;2024-02-23T08:13:35;9.00;;;2.93;;
5867;SDS011;2960;49.142;7.768;2024-02-23T08:16:02;8.13;;;2.73;;
5867;SDS011;2960;49.142;7.768;2024-02-23T08:18:30;8.80;;;2.80;;
5867;SDS011;2960;49.142;7.768;2024-02-23T08:20:58;8.47;;;3.10;;
5867;SDS011;2960;49.142;7.768;2024-02-23T08:23:27;9.03;;;2.80;;
5867;SDS011;2960;49.142;7.768;2024-02-23T08:25:55;8.70;;;2.90;;
5867;SDS011;2960;49.142;7.768;2024-02-23T08:28:24;8.07;;;2.60;;
5867;SDS011;2960;49.142;7.768;2024-02-23T08:30:52;8.50;;;2.80;;
5867;SDS011;2960;49.142;7.768;2024-02-23T08:33:19;8.47;;;2.80;;
5867;SDS011;2960;49.142;7.768;2024-02-23T08:35:46;8.87;;;2.80;;
5867;SDS011;2960;49.142;7.768;2024-02-23T08:38:13;9.10;;;3.30;;
5867;SDS011;2960;49.142;7.768;2024-02-23T08:40:40;9.00;;;2.83;;
5867;SDS011;2960;49.142;7.768;2024-02-23T08:43:08;8.90;;;2.87;;
5867;SDS011;2960;49.142;7.768;2024-02-23T08:45:37;8.40;;;2.80;;
5867;SDS011;2960;49.142;7.768;2024-02-23T08:48:04;8.50;;;2.87;;
5867;SDS011;2960;49.142;7.768;2024-02-23T08:50:32;8.90;;;2.90;;
5867;SDS011;2960;49.142;7.768;2024-02-23T08:52:59;10.00;;;3.00;;
5867;SDS011;2960;49.142;7.768;2024-02-23T08:55:26;8.90;;;2.90;;
5867;SDS011;2960;49.142;7.768;2024-02-23T08:57:53;8.23;;;2.80;;
5867;SDS011;2960;49.142;7.768;2024-02-23T09:00:21;8.93;;;3.00;;
5867;SDS011;2960;49.142;7.768;2024-02-23T09:02:50;9.73;;;3.10;;
5867;SDS011;2960;49.142;7.768;2024-02-23T09:05:18;8.70;;;2.90;;
5867;SDS011;2960;49.142;7.768;2024-02-23T09:07:46;8.40;;;2.80;;
5867;SDS011;2960;49.142;7.768;2024-02-23T09:10:13;8.83;;;2.80;;
5867;SDS011;2960;49.142;7.768;2024-02-23T09:12:41;8.80;;;2.90;;
5867;SDS011;2960;49.142;7.768;2024-02-23T09:15:08;8.90;;;3.00;;
5867;SDS011;2960;49.142;7.768;2024-02-23T09:17:36;8.37;;;2.70;;
5867;SDS011;2960;49.142;7.768;2024-02-23T09:20:05;8.40;;;2.77;;
5867;SDS011;2960;49.142;7.768;2024-02-23T09:22:33;8.23;;;2.80;;
5867;SDS011;2960;49.142;7.768;2024-02-23T09:25:00;8.50;;;2.73;;
5867;SDS011;2960;49.142;7.768;2024-02-23T09:27:30;9.03;;;2.90;;
5867;SDS011;2960;49.142;7.768;2024-02-23T09:29:57;8.90;;;3.10;;
5867;SDS011;2960;49.142;7.768;2024-02-23T09:32:25;8.73;;;3.03;;
5867;SDS011;2960;49.142;7.768;2024-02-23T09:34:52;11.00;;;3.03;;
5867;SDS011;2960;49.142;7.768;2024-02-23T09:37:20;9.53;;;2.70;;
5867;SDS011;2960;49.142;7.768;2024-02-23T09:39:47;8.37;;;2.70;;
5867;SDS011;2960;49.142;7.768;2024-02-23T09:42:14;8.27;;;2.70;;
5867;SDS011;2960;49.142;7.768;2024-02-23T09:44:43;8.50;;;2.73;;
5867;SDS011;2960;49.142;7.768;2024-02-23T09:47:11;8.27;;;2.60;;
5867;SDS011;2960;49.142;7.768;2024-02-23T09:49:40;8.70;;;2.83;;
5867;SDS011;2960;49.142;7.768;2024-02-23T09:52:07;8.80;;;2.80;;
5867;SDS011;2960;49.142;7.768;2024-02-23T09:54:37;8.60;;;3.10;;
5867;SDS011;2960;49.142;7.768;2024-02-23T09:57:06;8.70;;;3.10;;
5867;SDS011;2960;49.142;7.768;2024-02-23T09:59:35;9.57;;;3.37;;
5867;SDS011;2960;49.142;7.768;2024-02-23T10:02:02;9.53;;;3.10;;
5867;SDS011;2960;49.142;7.768;2024-02-23T10:04:35;8.80;;;3.20;;
5867;SDS011;2960;49.142;7.768;2024-02-23T10:07:04;9.33;;;3.23;;
5867;SDS011;2960;49.142;7.768;2024-02-23T10:09:32;9.00;;;3.23;;
5867;SDS011;2960;49.142;7.768;2024-02-23T10:12:00;9.00;;;2.77;;
5867;SDS011;2960;49.142;7.768;2024-02-23T10:14:28;8.80;;;3.10;;
5867;SDS011;2960;49.142;7.768;2024-02-23T10:16:55;8.40;;;2.70;;
5867;SDS011;2960;49.142;7.768;2024-02-23T10:19:22;8.60;;;3.20;;
5867;SDS011;2960;49.142;7.768;2024-02-23T10:21:53;8.70;;;2.83;;
5867;SDS011;2960;49.142;7.768;2024-02-23T10:24:22;8.50;;;2.90;;
5867;SDS011;2960;49.142;7.768;2024-02-23T10:26:50;8.33;;;2.90;;
5867;SDS011;2960;49.142;7.768;2024-02-23T10:29:19;9.50;;;3.30;;
5867;SDS011;2960;49.142;7.768;2024-02-23T10:31:47;8.63;;;3.03;;
5867;SDS011;2960;49.142;7.768;2024-02-23T10:34:15;8.80;;;3.00;;
5867;SDS011;2960;49.142;7.768;2024-02-23T10:36:46;8.27;;;2.80;;
5867;SDS011;2960;49.142;7.768;2024-02-23T10:39:15;8.60;;;3.07;;
5867;SDS011;2960;49.142;7.768;2024-02-23T10:41:46;8.53;;;3.10;;
5867;SDS011;2960;49.142;7.768;2024-02-23T10:44:21;8.37;;;2.73;;
5867;SDS011;2960;49.142;7.768;2024-02-23T10:46:48;9.83;;;3.30;;
5867;SDS011;2960;49.142;7.768;2024-02-23T10:49:19;8.57;;;2.90;;
5867;SDS011;2960;49.142;7.768;2024-02-23T10:51:51;8.90;;;3.17;;
5867;SDS011;2960;49.142;7.768;2024-02-23T10:54:20;9.93;;;3.30;;
5867;SDS011;2960;49.142;7.768;2024-02-23T10:56:48;9.37;;;2.67;;
5867;SDS011;2960;49.142;7.768;2024-02-23T10:59:16;8.47;;;2.80;;
5867;SDS011;2960;49.142;7.768;2024-02-23T11:01:46;8.63;;;2.80;;
5867;SDS011;2960;49.142;7.768;2024-02-23T11:04:15;8.80;;;2.90;;
5867;SDS011;2960;49.142;7.768;2024-02-23T11:06:48;9.27;;;2.70;;
5867;SDS011;2960;49.142;7.768;2024-02-23T11:09:16;9.10;;;2.80;;
5867;SDS011;2960;49.142;7.768;2024-02-23T11:11:53;9.20;;;2.63;;
5867;SDS011;2960;49.142;7.768;2024-02-23T11:14:30;8.80;;;3.17;;
5867;SDS011;2960;49.142;7.768;2024-02-23T11:16:59;9.37;;;3.37;;
5867;SDS011;2960;49.142;7.768;2024-02-23T11:19:33;9.80;;;3.10;;
5867;SDS011;2960;49.142;7.768;2024-02-23T11:22:01;9.60;;;3.70;;
5867;SDS011;2960;49.142;7.768;2024-02-23T11:24:29;10.50;;;3.10;;
5867;SDS011;2960;49.142;7.768;2024-02-23T11:26:57;9.03;;;3.07;;
5867;SDS011;2960;49.142;7.768;2024-02-23T11:29:26;9.10;;;3.23;;
5867;SDS011;2960;49.142;7.768;2024-02-23T11:31:54;9.60;;;3.17;;
5867;SDS011;2960;49.142;7.768;2024-02-23T11:34:28;9.80;;;3.50;;
5867;SDS011;2960;49.142;7.768;2024-02-23T11:36:55;10.07;;;3.70;;
5867;SDS011;2960;49.142;7.768;2024-02-23T11:39:25;8.87;;;3.10;;
5867;SDS011;2960;49.142;7.768;2024-02-23T11:41:53;10.60;;;3.70;;
5867;SDS011;2960;49.142;7.768;2024-02-23T11:44:21;9.10;;;3.00;;
5867;SDS011;2960;49.142;7.768;2024-02-23T11:46:49;8.83;;;2.80;;
5867;SDS011;2960;49.142;7.768;2024-02-23T11:49:16;10.10;;;3.30;;
5867;SDS011;2960;49.142;7.768;2024-02-23T11:51:45;9.37;;;3.37;;
5867;SDS011;2960;49.142;7.768;2024-02-23T11:54:14;9.20;;;3.40;;
5867;SDS011;2960;49.142;7.768;2024-02-23T11:56:42;10.00;;;3.27;;
5867;SDS011;2960;49.142;7.768;2024-02-23T11:59:09;9.40;;;3.43;;
5867;SDS011;2960;49.142;7.768;2024-02-23T12:01:39;10.13;;;3.50;;
5867;SDS011;2960;49.142;7.768;2024-02-23T12:04:07;11.30;;;3.80;;
5867;SDS011;2960;49.142;7.768;2024-02-23T12:06:34;8.80;;;3.27;;
5867;SDS011;2960;49.142;7.768;2024-02-23T12:09:02;9.43;;;3.40;;
5867;SDS011;2960;49.142;7.768;2024-02-23T12:11:30;9.87;;;3.07;;
5867;SDS011;2960;49.142;7.768;2024-02-23T12:13:57;8.80;;;2.80;;
5867;SDS011;2960;49.142;7.768;2024-02-23T12:16:25;9.20;;;3.27;;
5867;SDS011;2960;49.142;7.768;2024-02-23T12:18:53;9.00;;;3.10;;
5867;SDS011;2960;49.142;7.768;2024-02-23T12:21:22;10.00;;;3.30;;
5867;SDS011;2960;49.142;7.768;2024-02-23T12:23:50;9.07;;;3.40;;
5867;SDS011;2960;49.142;7.768;2024-02-23T12:26:21;10.37;;;3.23;;
5867;SDS011;2960;49.142;7.768;2024-02-23T12:28:48;9.20;;;3.00;;
5867;SDS011;2960;49.142;7.768;2024-02-23T12:31:16;9.47;;;3.10;;
5867;SDS011;2960;49.142;7.768;2024-02-23T12:33:56;9.20;;;3.37;;
5867;SDS011;2960;49.142;7.768;2024-02-23T12:36:24;8.77;;;2.90;;
5867;SDS011;2960;49.142;7.768;2024-02-23T12:38:54;9.00;;;3.13;;
5867;SDS011;2960;49.142;7.768;2024-02-23T12:41:22;8.60;;;2.70;;
5867;SDS011;2960;49.142;7.768;2024-02-23T12:43:49;8.70;;;2.90;;
5867;SDS011;2960;49.142;7.768;2024-02-23T12:46:18;8.80;;;3.13;;
5867;SDS011;2960;49.142;7.768;2024-02-23T12:48:45;9.93;;;3.20;;
5867;SDS011;2960;49.142;7.768;2024-02-23T12:51:12;11.10;;;3.47;;
5867;SDS011;2960;49.142;7.768;2024-02-23T12:53:40;8.97;;;2.90;;
5867;SDS011;2960;49.142;7.768;2024-02-23T12:56:09;8.90;;;3.00;;
5867;SDS011;2960;49.142;7.768;2024-02-23T12:58:40;9.53;;;3.27;;
5867;SDS011;2960;49.142;7.768;2024-02-23T13:01:09;10.20;;;3.20;;
5867;SDS011;2960;49.142;7.768;2024-02-23T13:03:39;9.30;;;3.33;;
5867;SDS011;2960;49.142;7.768;2024-02-23T13:06:07;10.30;;;3.43;;
5867;SDS011;2960;49.142;7.768;2024-02-23T13:08:34;10.73;;;3.43;;
5867;SDS011;2960;49.142;7.768;2024-02-23T13:11:01;9.27;;;3.17;;
5867;SDS011;2960;49.142;7.768;2024-02-23T13:13:28;9.73;;;3.50;;
5867;SDS011;2960;49.142;7.768;2024-02-23T13:15:59;10.87;;;3.47;;
5867;SDS011;2960;49.142;7.768;2024-02-23T13:18:27;9.50;;;3.30;;
5867;SDS011;2960;49.142;7.768;2024-02-23T13:20:54;9.50;;;3.30;;
5867;SDS011;2960;49.142;7.768;2024-02-23T13:23:21;9.30;;;3.00;;
5867;SDS011;2960;49.142;7.768;2024-02-23T13:25:49;9.43;;;3.33;;
5867;SDS011;2960;49.142;7.768;2024-02-23T13:28:20;9.40;;;3.50;;
5867;SDS011;2960;49.142;7.768;2024-02-23T13:30:47;9.23;;;3.33;;
5867;SDS011;2960;49.142;7.768;2024-02-23T13:33:16;9.33;;;3.33;;
5867;SDS011;2960;49.142;7.768;2024-02-23T13:35:45;9.50;;;3.10;;
5867;SDS011;2960;49.142;7.768;2024-02-23T13:38:12;10.10;;;3.30;;
5867;SDS011;2960;49.142;7.768;2024-02-23T13:40:39;9.50;;;3.40;;
5867;SDS011;2960;49.142;7.768;2024-02-23T13:43:06;9.33;;;3.40;;
5867;SDS011;2960;49.142;7.768;2024-02-23T13:45:47;9.17;;;3.23;;
5867;SDS011;2960;49.142;7.768;2024-02-23T13:48:18;9.20;;;3.30;;
5867;SDS011;2960;49.142;7.768;2024-02-23T13:50:46;9.40;;;3.50;;
5867;SDS011;2960;49.142;7.768;2024-02-23T13:53:13;8.97;;;3.23;;
5867;SDS011;2960;49.142;7.768;2024-02-23T13:55:41;9.17;;;3.67;;
5867;SDS011;2960;49.142;7.768;2024-02-23T13:58:09;9.97;;;3.30;;
5867;SDS011;2960;49.142;7.768;2024-02-23T14:00:37;9.20;;;3.37;;
5867;SDS011;2960;49.142;7.768;2024-02-23T14:03:04;9.10;;;3.40;;
5867;SDS011;2960;49.142;7.768;2024-02-23T14:05:33;9.60;;;3.50;;
5867;SDS011;2960;49.142;7.768;2024-02-23T14:08:00;8.90;;;3.13;;
5867;SDS011;2960;49.142;7.768;2024-02-23T14:10:28;9.17;;;3.50;;
5867;SDS011;2960;49.142;7.768;2024-02-23T14:12:55;12.50;;;3.80;;
5867;SDS011;2960;49.142;7.768;2024-02-23T14:15:22;9.17;;;3.60;;
5867;SDS011;2960;49.142;7.768;2024-02-23T14:17:50;9.40;;;3.33;;
5867;SDS011;2960;49.142;7.768;2024-02-23T14:20:17;9.23;;;3.40;;
5867;SDS011;2960;49.142;7.768;2024-02-23T14:22:45;8.93;;;3.20;;
5867;SDS011;2960;49.142;7.768;2024-02-23T14:25:15;8.90;;;3.30;;
5867;SDS011;2960;49.142;7.768;2024-02-23T14:27:42;9.50;;;3.50;;
5867;SDS011;2960;49.142;7.768;2024-02-23T14:30:10;9.70;;;3.40;;
5867;SDS011;2960;49.142;7.768;2024-02-23T14:32:37;9.37;;;3.43;;
5867;SDS011;2960;49.142;7.768;2024-02-23T14:35:07;9.00;;;3.27;;
5867;SDS011;2960;49.142;7.768;2024-02-23T14:37:35;9.40;;;3.20;;
5867;SDS011;2960;49.142;7.768;2024-02-23T14:40:04;9.30;;;3.27;;
5867;SDS011;2960;49.142;7.768;2024-02-23T14:42:36;9.00;;;3.30;;
5867;SDS011;2960;49.142;7.768;2024-02-23T14:45:04;9.90;;;3.30;;
5867;SDS011;2960;49.142;7.768;2024-02-23T14:47:34;8.93;;;3.23;;
5867;SDS011;2960;49.142;7.768;2024-02-23T14:50:01;9.03;;;3.50;;
5867;SDS011;2960;49.142;7.768;2024-02-23T14:52:28;9.40;;;3.40;;
5867;SDS011;2960;49.142;7.768;2024-02-23T14:54:56;9.07;;;3.30;;
5867;SDS011;2960;49.142;7.768;2024-02-23T14:57:24;8.97;;;3.23;;
5867;SDS011;2960;49.142;7.768;2024-02-23T14:59:51;9.40;;;3.60;;
5867;SDS011;2960;49.142;7.768;2024-02-23T15:02:19;9.00;;;3.40;;
5867;SDS011;2960;49.142;7.768;2024-02-23T15:04:48;9.10;;;3.50;;
5867;SDS011;2960;49.142;7.768;2024-02-23T15:07:15;9.77;;;3.50;;
5867;SDS011;2960;49.142;7.768;2024-02-23T15:09:42;9.90;;;3.87;;
5867;SDS011;2960;49.142;7.768;2024-02-23T15:12:09;10.50;;;3.77;;
5867;SDS011;2960;49.142;7.768;2024-02-23T15:14:39;9.63;;;3.57;;
5867;SDS011;2960;49.142;7.768;2024-02-23T15:17:07;9.87;;;3.67;;